Time;durP1;ratioP1;P1;durP2;ratioP2;P2;SDS_P1;SDS_P2;PMS_P1;PMS_P2;Temp;Humidity;BMP_temperature;BMP_pressure;BME280_temperature;BME280_humidity;BME280_pressure;Samples;Min_cycle;Max_cycle;Signal;HPM_P1;HPM_P2
2023/11/26 00:00:13;;;;;;;45.70;31.00;;;;;;;-0.38;100.00;98533.73;88533;282;136935;-71
2023/11/26 00:02:18;;;;;;;42.30;29.60;;;;;;;-0.39;100.00;98528.75;88518;282;24135;-72
2023/11/26 00:04:20;;;;;;;44.10;30.50;;;;;;;-0.45;100.00;98525.66;88414;275;136323;-73
2023/11/26 00:06:23;;;;;;;45.10;31.40;;;;;;;-0.47;100.00;98530.80;88500;276;22545;-74
2023/11/26 00:08:25;;;;;;;44.80;31.10;;;;;;;-0.51;100.00;98536.88;88502;282;136029;-74
2023/11/26 00:10:29;;;;;;;44.50;30.20;;;;;;;-0.55;100.00;98542.15;88584;282;22527;-74
2023/11/26 00:12:31;;;;;;;41.30;27.70;;;;;;;-0.54;100.00;98540.45;88389;279;136710;-76
2023/11/26 00:14:37;;;;;;;44.60;30.70;;;;;;;-0.51;100.00;98536.63;88539;282;22537;-76
2023/11/26 00:16:39;;;;;;;45.30;30.80;;;;;;;-0.49;100.00;98539.98;88378;282;136842;-74
2023/11/26 00:18:41;;;;;;;41.00;29.00;;;;;;;-0.49;100.00;98556.05;88478;275;24141;-74
2023/11/26 00:20:43;;;;;;;43.30;29.30;;;;;;;-0.50;100.00;98563.58;88312;280;136659;-73
2023/11/26 00:22:47;;;;;;;39.30;28.00;;;;;;;-0.48;100.00;98560.95;88466;280;24135;-74
2023/11/26 00:24:49;;;;;;;44.20;28.90;;;;;;;-0.47;100.00;98555.56;88541;282;136673;-73
2023/11/26 00:26:51;;;;;;;43.90;29.00;;;;;;;-0.45;100.00;98557.54;88601;282;23694;-73
2023/11/26 00:28:54;;;;;;;45.80;31.10;;;;;;;-0.44;100.00;98558.97;88508;282;136814;-72
2023/11/26 00:30:58;;;;;;;41.80;28.90;;;;;;;-0.43;100.00;98555.39;88363;276;25102;-72
2023/11/26 00:33:00;;;;;;;45.70;32.50;;;;;;;-0.45;100.00;98553.85;88378;276;136768;-74
2023/11/26 00:35:03;;;;;;;42.90;30.70;;;;;;;-0.51;100.00;98555.14;88473;277;22560;-77
2023/11/26 00:37:05;;;;;;;47.00;33.40;;;;;;;-0.55;100.00;98563.27;88410;281;138192;-76
2023/11/26 00:39:08;;;;;;;50.10;33.80;;;;;;;-0.59;100.00;98569.21;88454;279;23637;-73
2023/11/26 00:41:13;;;;;;;52.80;33.90;;;;;;;-0.62;100.00;98558.88;88426;282;137372;-74
2023/11/26 00:43:15;;;;;;;49.80;34.70;;;;;;;-0.61;100.00;98553.31;88597;275;22550;-74
2023/11/26 00:45:17;;;;;;;46.60;31.40;;;;;;;-0.57;100.00;98549.50;88449;282;136861;-74
2023/11/26 00:47:21;;;;;;;45.10;30.70;;;;;;;-0.55;100.00;98549.27;88375;284;23717;-75
2023/11/26 00:49:25;;;;;;;41.20;30.70;;;;;;;-0.54;100.00;98546.59;88491;283;136351;-75
2023/11/26 00:51:27;;;;;;;49.30;31.70;;;;;;;-0.52;100.00;98544.80;88544;282;22555;-73
2023/11/26 00:53:32;;;;;;;47.70;31.20;;;;;;;-0.50;100.00;98549.64;88323;276;137274;-73
2023/11/26 00:55:36;;;;;;;47.90;29.40;;;;;;;-0.48;100.00;98549.94;88467;283;25421;-72
2023/11/26 00:57:38;;;;;;;42.90;30.80;;;;;;;-0.45;100.00;98548.65;88398;282;137008;-76
2023/11/26 00:59:40;;;;;;;46.50;32.20;;;;;;;-0.46;100.00;98540.46;88368;283;24093;-73
2023/11/26 01:01:42;;;;;;;47.40;31.40;;;;;;;-0.48;100.00;98534.42;88273;281;137318;-76
2023/11/26 01:03:44;;;;;;;50.50;35.90;;;;;;;-0.58;100.00;98512.84;88543;274;24018;-73
2023/11/26 01:05:47;;;;;;;53.30;38.30;;;;;;;-0.51;100.00;98523.73;88257;283;136184;-74
2023/11/26 01:07:49;;;;;;;60.30;39.90;;;;;;;-0.50;100.00;98523.13;88549;283;22538;-73
2023/11/26 01:09:51;;;;;;;61.90;42.70;;;;;;;-0.48;100.00;98523.77;88522;282;136658;-74
2023/11/26 01:11:53;;;;;;;62.20;42.80;;;;;;;-0.44;100.00;98527.14;88407;274;22548;-74
2023/11/26 01:13:57;;;;;;;67.30;44.50;;;;;;;-0.42;100.00;98524.59;88360;281;136344;-74
2023/11/26 01:16:00;;;;;;;65.60;43.00;;;;;;;-0.43;100.00;98520.63;88529;274;24017;-75
2023/11/26 01:18:03;;;;;;;66.60;43.90;;;;;;;-0.44;100.00;98516.34;88567;283;25147;-77
2023/11/26 01:20:10;;;;;;;62.80;44.20;;;;;;;-0.45;100.00;98508.76;88306;274;137911;-73
2023/11/26 01:22:12;;;;;;;61.50;42.60;;;;;;;-0.44;100.00;98503.78;88467;275;26177;-76
2023/11/26 01:24:14;;;;;;;59.20;42.50;;;;;;;-0.45;100.00;98494.69;88222;277;136456;-72
2023/11/26 01:26:17;;;;;;;55.50;41.30;;;;;;;-0.46;100.00;98490.06;88422;282;22550;-79
2023/11/26 01:28:20;;;;;;;58.00;40.50;;;;;;;-0.48;100.00;98494.05;88433;282;136385;-72
2023/11/26 01:30:24;;;;;;;62.00;41.50;;;;;;;-0.48;100.00;98498.86;88355;276;22571;-72
2023/11/26 01:32:26;;;;;;;55.60;38.00;;;;;;;-0.48;100.00;98502.85;88573;275;137670;-72
2023/11/26 01:34:28;;;;;;;53.80;35.90;;;;;;;-0.44;100.00;98505.24;88339;279;25159;-74
2023/11/26 01:36:30;;;;;;;57.50;38.10;;;;;;;-0.36;100.00;98510.16;88203;280;136915;-74
2023/11/26 01:38:32;;;;;;;50.80;36.00;;;;;;;-0.33;100.00;98503.00;88355;282;25194;-76
2023/11/26 01:40:38;;;;;;;52.30;34.50;;;;;;;-0.25;100.00;98507.02;88337;282;137102;-71
2023/11/26 01:42:43;;;;;;;59.60;33.50;;;;;;;-0.22;100.00;98505.09;88422;279;27279;-73
2023/11/26 01:44:46;;;;;;;;;;;;;;;-0.18;100.00;98505.45;88237;280;138179;-74
2023/11/26 01:46:49;;;;;;;49.10;33.60;;;;;;;-0.17;100.00;98507.39;88507;282;24105;-74
2023/11/26 01:48:51;;;;;;;49.10;35.50;;;;;;;-0.16;100.00;98506.50;88482;279;136750;-72
2023/11/26 01:50:53;;;;;;;54.00;34.40;;;;;;;-0.21;100.00;98503.06;88488;279;22780;-73
2023/11/26 01:52:56;;;;;;;58.60;38.20;;;;;;;-0.25;100.00;98498.27;88252;275;139180;-72
2023/11/26 01:54:58;;;;;;;56.60;39.00;;;;;;;-0.30;100.00;98494.13;88396;279;22550;-71
2023/11/26 01:57:04;;;;;;;58.30;38.40;;;;;;;-0.32;100.00;98496.65;88369;278;136467;-76
2023/11/26 01:59:08;;;;;;;60.30;36.90;;;;;;;-0.30;100.00;98499.56;88531;276;22537;-80
2023/11/26 02:01:13;;;;;;;50.80;34.50;;;;;;;-0.27;100.00;98497.40;88244;283;137334;-69
2023/11/26 02:03:16;;;;;;;51.30;32.50;;;;;;;-0.38;100.00;98471.62;88390;283;24021;-73
2023/11/26 02:05:18;;;;;;;52.10;34.30;;;;;;;-0.31;100.00;98491.32;88370;282;137001;-73
2023/11/26 02:07:21;;;;;;;49.60;34.10;;;;;;;-0.38;100.00;98489.94;88495;282;22537;-74
2023/11/26 02:09:23;;;;;;;54.90;35.10;;;;;;;-0.45;100.00;98490.33;88439;282;137213;-75
2023/11/26 02:11:26;;;;;;;59.70;37.30;;;;;;;-0.49;100.00;98491.99;88434;282;22563;-71
2023/11/26 02:13:29;;;;;;;51.40;34.30;;;;;;;-0.49;100.00;98482.18;88262;283;136841;-75
2023/11/26 02:15:33;;;;;;;51.40;36.70;;;;;;;-0.51;100.00;98476.45;88386;280;24865;-71
2023/11/26 02:17:35;;;;;;;57.00;38.20;;;;;;;-0.55;100.00;98473.61;88359;279;136500;-76
2023/11/26 02:19:41;;;;;;;65.30;40.30;;;;;;;-0.60;100.00;98473.17;88375;282;24128;-71
2023/11/26 02:21:43;;;;;;;62.70;40.10;;;;;;;-0.65;100.00;98471.27;88470;283;136545;-71
2023/11/26 02:23:46;;;;;;;51.30;37.10;;;;;;;-0.70;100.00;98465.20;88306;283;22536;-74
2023/11/26 02:25:48;;;;;;;58.30;34.70;;;;;;;-0.71;100.00;98461.78;88598;275;136528;-73
2023/11/26 02:27:51;;;;;;;48.50;32.50;;;;;;;-0.71;100.00;98451.68;90041;280;22554;-74
2023/11/26 02:29:53;;;;;;;49.90;33.60;;;;;;;-0.72;100.00;98442.14;88324;275;136794;-73
2023/11/26 02:31:56;;;;;;;51.90;34.30;;;;;;;-0.75;100.00;98435.59;88523;283;22783;-73
2023/11/26 02:33:58;;;;;;;46.40;32.70;;;;;;;-0.79;100.00;98431.13;88455;282;136676;-74
2023/11/26 02:36:05;;;;;;;51.50;33.90;;;;;;;-0.84;100.00;98423.77;88332;276;137630;-72
2023/11/26 02:38:06;;;;;;;51.50;32.80;;;;;;;-0.88;100.00;98425.42;88607;282;22553;-77
2023/11/26 02:40:10;;;;;;;48.70;31.60;;;;;;;-0.92;100.00;98423.23;88506;282;137002;-69
2023/11/26 02:42:12;;;;;;;47.10;31.20;;;;;;;-0.93;100.00;98426.83;88683;282;24052;-74
2023/11/26 02:44:14;;;;;;;49.10;33.20;;;;;;;-1.00;100.00;98418.14;88476;283;137326;-75
2023/11/26 02:46:16;;;;;;;46.90;31.00;;;;;;;-0.90;100.00;98429.73;88519;278;22527;-72
2023/11/26 02:48:19;;;;;;;52.00;30.80;;;;;;;-0.90;100.00;98426.65;88419;274;138974;-70
2023/11/26 02:50:22;;;;;;;49.50;31.80;;;;;;;-0.90;100.00;98423.02;88384;275;25330;-74
2023/11/26 02:52:24;;;;;;;47.80;32.10;;;;;;;-0.92;100.00;98417.72;88284;282;137714;-74
2023/11/26 02:54:26;;;;;;;53.10;33.60;;;;;;;-0.97;100.00;98414.15;88508;282;22612;-73
2023/11/26 02:56:29;;;;;;;53.00;31.70;;;;;;;-1.00;100.00;98409.94;88538;274;137045;-74
2023/11/26 02:58:31;;;;;;;46.10;31.60;;;;;;;-1.07;100.00;98386.58;88649;280;24017;-72
2023/11/26 03:00:36;;;;;;;42.30;30.20;;;;;;;-0.94;100.00;98398.04;88298;285;137868;-72
2023/11/26 03:02:38;;;;;;;49.60;32.70;;;;;;;-0.90;100.00;98395.83;88602;282;25105;-73
2023/11/26 03:04:48;;;;;;;54.20;33.40;;;;;;;-1.04;100.00;98381.25;88309;283;136594;-73
2023/11/26 03:06:52;;;;;;;50.60;34.70;;;;;;;-1.02;100.00;98395.81;88442;282;24134;-73
2023/11/26 03:08:59;;;;;;;48.80;33.80;;;;;;;-1.03;100.00;98387.79;88358;279;136121;-72
2023/11/26 03:13:24;;;;;;;46.00;30.00;;;;;;;-0.99;100.00;98373.73;88273;282;137071;-71
2023/11/26 03:15:26;;;;;;;47.90;31.60;;;;;;;-0.99;100.00;98372.66;88336;285;22542;-74
2023/11/26 03:17:29;;;;;;;44.20;29.90;;;;;;;-1.02;100.00;98370.50;88699;282;137277;-72
2023/11/26 03:19:31;;;;;;;43.70;27.60;;;;;;;-1.02;100.00;98377.73;88548;282;22540;-73
2023/11/26 03:21:33;;;;;;;45.00;28.30;;;;;;;-1.04;100.00;98385.96;88361;283;137101;-77
2023/11/26 03:23:35;;;;;;;40.90;28.00;;;;;;;-1.06;100.00;98390.33;88403;284;22533;-78
2023/11/26 03:25:38;;;;;;;48.60;30.00;;;;;;;-1.06;100.00;98391.22;88378;281;137156;-76
2023/11/26 03:27:41;;;;;;;41.60;28.90;;;;;;;-1.06;100.00;98397.52;88681;282;22546;-73
2023/11/26 03:29:43;;;;;;;46.00;30.60;;;;;;;-1.08;100.00;98402.75;88498;279;136897;-73
2023/11/26 03:31:47;;;;;;;44.80;29.50;;;;;;;-1.14;100.00;98405.00;88440;283;25268;-76
2023/11/26 03:33:52;;;;;;;45.00;30.90;;;;;;;-1.23;100.00;98404.89;88499;282;137947;-72
2023/11/26 03:35:55;;;;;;;51.00;30.80;;;;;;;-1.33;100.00;98403.48;88481;275;22540;-72
2023/11/26 03:37:57;;;;;;;43.70;30.10;;;;;;;-1.37;100.00;98406.09;88222;282;136720;-72
2023/11/26 03:40:00;;;;;;;44.60;29.30;;;;;;;-1.35;100.00;98409.20;88355;283;22549;-70
2023/11/26 03:42:03;;;;;;;43.00;30.00;;;;;;;-1.32;100.00;98402.11;88426;275;22562;-72
2023/11/26 03:44:21;;;;;;;45.00;30.90;;;;;;;-1.31;100.00;98396.11;88467;281;137289;-73
2023/11/26 03:46:23;;;;;;;43.40;29.00;;;;;;;-1.31;100.00;98388.24;88537;282;22539;-72
2023/11/26 03:48:28;;;;;;;39.40;28.10;;;;;;;-1.28;100.00;98383.38;88463;276;139413;-72
2023/11/26 03:50:30;;;;;;;42.90;27.60;;;;;;;-1.22;100.00;98384.17;88492;282;22712;-73
2023/11/26 03:52:33;;;;;;;45.00;28.20;;;;;;;-1.20;100.00;98386.42;88233;283;136044;-74
2023/11/26 03:54:35;;;;;;;50.90;30.50;;;;;;;-1.23;100.00;98386.23;88454;275;22711;-74
2023/11/26 03:56:38;;;;;;;45.20;27.80;;;;;;;-1.24;100.00;98389.86;88305;283;137147;-72
2023/11/26 03:58:42;;;;;;;45.60;28.20;;;;;;;-1.20;100.00;98388.65;88384;280;24176;-75
2023/11/26 04:00:44;;;;;;;37.50;26.50;;;;;;;-1.11;100.00;98396.66;88364;282;138292;-70
2023/11/26 04:02:46;;;;;;;43.70;29.80;;;;;;;-1.05;100.00;98407.14;88441;275;22540;-75
2023/11/26 04:04:51;;;;;;;40.30;27.80;;;;;;;-0.99;100.00;98421.46;88282;282;136908;-72
2023/11/26 04:06:53;;;;;;;36.10;26.00;;;;;;;-0.97;100.00;98433.51;88464;283;22562;-74
2023/11/26 04:08:58;;;;;;;47.00;30.10;;;;;;;-1.00;100.00;98442.84;88342;276;137494;-75
2023/11/26 04:11:00;;;;;;;35.90;27.00;;;;;;;-1.05;100.00;98450.15;88559;279;25278;-74
2023/11/26 04:13:03;;;;;;;39.60;27.50;;;;;;;-1.06;100.00;98450.67;88348;282;137921;-72
2023/11/26 04:15:06;;;;;;;45.80;30.50;;;;;;;-1.04;100.00;98450.75;88456;283;22536;-71
2023/11/26 04:17:08;;;;;;;48.40;28.90;;;;;;;-0.98;100.00;98441.46;88341;275;138620;-73
2023/11/26 04:19:10;;;;;;;42.00;29.30;;;;;;;-0.95;100.00;98439.50;88444;275;22534;-71
2023/11/26 04:21:13;;;;;;;38.40;26.00;;;;;;;-0.96;100.00;98434.42;88333;276;137186;-74
2023/11/26 04:23:15;;;;;;;40.50;26.10;;;;;;;-0.97;100.00;98426.34;88421;282;22523;-72
2023/11/26 04:25:17;;;;;;;41.30;27.00;;;;;;;-1.02;100.00;98430.48;88370;282;137143;-75
2023/11/26 04:27:23;;;;;;;38.30;27.30;;;;;;;-1.07;100.00;98435.89;88599;276;24102;-73
2023/11/26 04:29:26;;;;;;;40.30;27.80;;;;;;;-1.15;100.00;98437.78;88508;282;137793;-72
2023/11/26 04:31:28;;;;;;;42.00;28.30;;;;;;;-1.27;100.00;98433.01;88396;282;24201;-71
2023/11/26 04:33:30;;;;;;;40.30;28.00;;;;;;;-1.34;100.00;98429.34;88326;279;137073;-72
2023/11/26 04:35:32;;;;;;;42.90;27.70;;;;;;;-1.36;100.00;98428.64;88463;284;22539;-74
2023/11/26 04:37:35;;;;;;;44.60;27.40;;;;;;;-1.39;100.00;98427.02;88320;282;136982;-72
2023/11/26 04:39:37;;;;;;;40.40;26.20;;;;;;;-1.40;100.00;98425.75;88535;274;24301;-71
2023/11/26 04:41:40;;;;;;;41.40;27.40;;;;;;;-1.41;100.00;98422.48;88497;282;137164;-73
2023/11/26 04:43:42;;;;;;;46.60;31.30;;;;;;;-1.38;100.00;98422.42;88461;274;22540;-71
2023/11/26 04:45:44;;;;;;;43.00;29.50;;;;;;;-1.36;100.00;98415.28;88383;282;136960;-73
2023/11/26 04:47:46;;;;;;;41.30;28.40;;;;;;;-1.41;100.00;98408.44;88503;282;24055;-71
2023/11/26 04:49:55;;;;;;;43.60;28.90;;;;;;;-1.46;100.00;98408.10;88470;282;136324;-73
2023/11/26 04:51:58;;;;;;;46.80;28.70;;;;;;;-1.47;100.00;98410.80;88552;279;24184;-73
2023/11/26 04:54:04;;;;;;;42.50;27.70;;;;;;;-1.39;100.00;98408.11;88328;275;137321;-74
2023/11/26 04:56:10;;;;;;;41.30;25.60;;;;;;;-1.31;100.00;98409.83;88425;282;136994;-72
2023/11/26 04:58:14;;;;;;;38.10;28.60;;;;;;;-1.22;100.00;98412.23;88542;279;22773;-73
2023/11/26 05:00:17;;;;;;;34.40;24.60;;;;;;;-1.17;100.00;98413.13;88462;282;136545;-73
2023/11/26 05:02:19;;;;;;;37.60;26.10;;;;;;;-1.19;100.00;98415.54;88175;277;22562;-70
2023/11/26 05:04:21;;;;;;;42.00;27.30;;;;;;;-1.24;100.00;98417.17;88293;275;136648;-72
2023/11/26 05:06:24;;;;;;;39.50;27.20;;;;;;;-1.31;100.00;98407.10;88388;283;24052;-72
2023/11/26 05:08:25;;;;;;;41.30;27.80;;;;;;;-1.20;100.00;98424.27;88267;283;136834;-72
2023/11/26 05:10:29;;;;;;;40.00;27.50;;;;;;;-1.19;100.00;98422.52;88454;282;22537;-72
2023/11/26 05:12:30;;;;;;;48.20;29.20;;;;;;;-1.17;100.00;98421.70;88130;279;137145;-69
2023/11/26 05:14:33;;;;;;;43.10;26.80;;;;;;;-1.34;100.00;98410.02;88096;280;24058;-72
2023/11/26 05:16:37;;;;;;;43.30;27.20;;;;;;;-1.32;100.00;98424.30;89299;275;136852;-70
2023/11/26 05:18:39;;;;;;;48.20;27.70;;;;;;;-1.30;100.00;98423.17;88961;282;22660;-71
2023/11/26 05:20:43;;;;;;;43.80;26.80;;;;;;;-1.25;100.00;98419.45;88943;282;137826;-70
2023/11/26 05:22:46;;;;;;;42.30;26.50;;;;;;;-1.18;100.00;98419.47;88197;279;22591;-71
2023/11/26 05:24:49;;;;;;;37.90;26.40;;;;;;;-1.15;100.00;98423.40;88006;275;136649;-71
2023/11/26 05:26:51;;;;;;;37.20;23.70;;;;;;;-1.21;100.00;98421.91;89645;274;23752;-72
2023/11/26 05:28:53;;;;;;;38.30;25.30;;;;;;;-1.35;100.00;98403.45;88258;279;136510;-70
2023/11/26 05:30:55;;;;;;;40.20;27.60;;;;;;;-1.24;100.00;98415.02;89736;275;24087;-71
2023/11/26 05:32:57;;;;;;;31.70;23.00;;;;;;;-1.20;100.00;98416.76;88363;274;136877;-73
2023/11/26 05:35:08;;;;;;;34.50;24.40;;;;;;;-1.18;100.00;98418.79;88240;277;24172;-71
2023/11/26 05:37:11;;;;;;;33.90;23.40;;;;;;;-1.15;100.00;98426.34;88265;274;137218;-71
2023/11/26 05:39:14;;;;;;;35.60;23.60;;;;;;;-1.11;100.00;98425.41;88607;279;22537;-72
2023/11/26 05:41:18;;;;;;;35.10;24.40;;;;;;;-1.09;100.00;98422.08;88302;275;137061;-72
2023/11/26 05:43:20;;;;;;;34.40;23.40;;;;;;;-1.11;100.00;98421.95;89312;275;23804;-71
2023/11/26 05:45:22;;;;;;;40.20;25.70;;;;;;;-1.14;100.00;98425.66;88130;275;136346;-73
2023/11/26 05:47:24;;;;;;;37.60;25.00;;;;;;;-1.09;100.00;98427.14;88191;274;24055;-69
2023/11/26 05:49:26;;;;;;;38.10;25.20;;;;;;;-1.01;100.00;98430.29;88086;275;137246;-67
2023/11/26 05:51:28;;;;;;;42.50;25.70;;;;;;;-0.96;100.00;98425.75;88062;276;25232;-72
2023/11/26 05:53:30;;;;;;;39.20;26.00;;;;;;;-0.91;100.00;98425.90;87990;275;137021;-71
2023/11/26 05:55:32;;;;;;;38.40;25.90;;;;;;;-0.88;100.00;98420.89;88281;275;24448;-70
2023/11/26 05:57:35;;;;;;;40.50;28.60;;;;;;;-0.92;100.00;98417.98;88945;274;137138;-70
2023/11/26 05:59:37;;;;;;;40.10;25.40;;;;;;;-0.97;100.00;98421.54;88152;274;22527;-70
2023/11/26 06:01:39;;;;;;;38.80;25.50;;;;;;;-0.96;100.00;98419.12;87917;276;138134;-70
2023/11/26 06:03:41;;;;;;;36.10;24.40;;;;;;;-1.00;100.00;98406.10;88299;275;25198;-73
2023/11/26 06:05:44;;;;;;;34.70;21.40;;;;;;;-0.87;100.00;98420.83;88230;282;136898;-73
2023/11/26 06:07:46;;;;;;;42.40;26.00;;;;;;;-0.88;100.00;98415.10;88381;282;22506;-74
2023/11/26 06:09:48;;;;;;;35.80;23.50;;;;;;;-0.92;100.00;98411.70;90995;282;137428;-70
2023/11/26 06:11:50;;;;;;;42.20;26.70;;;;;;;-0.97;100.00;98416.66;89383;282;22827;-72
2023/11/26 06:13:52;;;;;;;33.40;24.70;;;;;;;-0.94;100.00;98418.77;88307;282;136916;-70
2023/11/26 06:15:54;;;;;;;36.80;24.80;;;;;;;-0.88;100.00;98415.52;88283;275;24369;-68
2023/11/26 06:17:56;;;;;;;34.00;21.50;;;;;;;-0.85;100.00;98415.54;88202;275;136964;-71
2023/11/26 06:19:58;;;;;;;38.10;25.70;;;;;;;-0.84;100.00;98411.58;88323;275;22704;-70
2023/11/26 06:22:00;;;;;;;34.10;22.80;;;;;;;-0.89;100.00;98411.90;88235;279;136393;-69
2023/11/26 06:24:02;;;;;;;36.80;25.00;;;;;;;-0.98;100.00;98414.58;88265;278;25125;-70
2023/11/26 06:26:04;;;;;;;41.30;24.30;;;;;;;-0.98;100.00;98411.44;88481;282;22547;-72
2023/11/26 06:28:06;;;;;;;38.00;24.30;;;;;;;-0.94;100.00;98414.77;88300;279;137195;-72
2023/11/26 06:30:09;;;;;;;35.90;23.00;;;;;;;-0.95;100.00;98408.03;88387;279;22529;-71
2023/11/26 06:32:11;;;;;;;32.90;23.50;;;;;;;-0.85;100.00;98419.85;88282;282;137453;-68
2023/11/26 06:34:13;;;;;;;40.50;26.10;;;;;;;-0.81;100.00;98420.48;88151;280;22554;-70
2023/11/26 06:36:19;;;;;;;40.40;27.00;;;;;;;-0.90;100.00;98407.52;88125;275;136382;-70
2023/11/26 06:38:21;;;;;;;48.70;27.10;;;;;;;-0.93;100.00;98405.23;89356;275;24018;-74
2023/11/26 06:40:24;;;;;;;35.30;24.60;;;;;;;-0.86;100.00;98417.69;88272;275;137659;-75
2023/11/26 06:42:26;;;;;;;38.60;25.60;;;;;;;-0.79;100.00;98413.33;87816;276;702951;-73
2023/11/26 06:44:28;;;;;;;40.40;24.80;;;;;;;-0.67;100.00;98413.64;88237;275;138194;-76
2023/11/26 06:46:30;;;;;;;37.20;24.50;;;;;;;-0.57;100.00;98413.80;88477;275;25313;-75
2023/11/26 06:48:33;;;;;;;41.40;25.60;;;;;;;-0.53;100.00;98409.85;88157;276;136716;-76
2023/11/26 06:50:36;;;;;;;36.50;23.90;;;;;;;-0.55;100.00;98408.19;88468;276;26399;-73
2023/11/26 06:52:38;;;;;;;39.00;25.00;;;;;;;-0.59;100.00;98408.73;88253;275;136655;-75
2023/11/26 06:54:41;;;;;;;37.00;23.20;;;;;;;-0.64;100.00;98408.08;88260;276;22537;-73
2023/11/26 06:56:43;;;;;;;36.30;21.90;;;;;;;-0.62;100.00;98409.79;89769;279;136826;-72
2023/11/26 06:58:46;;;;;;;41.00;23.90;;;;;;;-0.56;100.00;98404.54;88351;279;23846;-73
2023/11/26 07:00:48;;;;;;;36.80;23.60;;;;;;;-0.52;100.00;98402.09;88097;275;137254;-72
2023/11/26 07:02:50;;;;;;;31.20;22.90;;;;;;;-0.51;100.00;98398.81;88322;276;22606;-72
2023/11/26 07:04:52;;;;;;;37.00;22.30;;;;;;;-0.57;100.00;98399.29;88246;276;136250;-75
2023/11/26 07:06:54;;;;;;;37.10;23.60;;;;;;;-0.72;100.00;98381.86;88369;283;24053;-73
2023/11/26 07:08:57;;;;;;;38.50;24.10;;;;;;;-0.69;100.00;98390.48;88348;282;137832;-71
2023/11/26 07:10:59;;;;;;;32.00;20.90;;;;;;;-0.67;100.00;98387.55;88401;282;22533;-73
2023/11/26 07:13:01;;;;;;;25.70;18.60;;;;;;;-0.60;100.00;98382.11;88439;282;137186;-74
2023/11/26 07:15:04;;;;;;;28.50;20.10;;;;;;;-0.52;100.00;98384.52;88522;282;22537;-73
2023/11/26 07:17:09;;;;;;;29.30;20.40;;;;;;;-0.48;100.00;98382.98;88190;276;137495;-74
2023/11/26 07:19:11;;;;;;;32.00;20.30;;;;;;;-0.52;100.00;98380.63;88914;282;22689;-74
2023/11/26 07:21:14;;;;;;;27.60;20.40;;;;;;;-0.61;100.00;98375.05;88334;278;136320;-72
2023/11/26 07:23:17;;;;;;;29.20;17.70;;;;;;;-0.60;100.00;98371.31;88489;283;24057;-73
2023/11/26 07:25:19;;;;;;;31.90;21.20;;;;;;;-0.56;100.00;98365.03;88305;283;137340;-75
2023/11/26 07:27:21;;;;;;;33.20;20.30;;;;;;;-0.51;100.00;98370.59;88528;282;25138;-73
2023/11/26 07:29:23;;;;;;;31.10;21.00;;;;;;;-0.46;100.00;98368.13;88292;276;136999;-69
2023/11/26 07:31:27;;;;;;;30.50;20.70;;;;;;;-0.43;100.00;98367.60;88398;283;22578;-74
2023/11/26 07:33:31;;;;;;;32.20;22.50;;;;;;;-0.45;100.00;98360.65;88398;275;140197;-71
2023/11/26 07:35:34;;;;;;;35.30;22.50;;;;;;;-0.46;100.00;98365.14;88447;283;22549;-69
2023/11/26 07:37:36;;;;;;;32.00;21.70;;;;;;;-0.50;100.00;98364.83;88306;283;137697;-74
2023/11/26 07:39:38;;;;;;;31.50;19.10;;;;;;;-0.47;100.00;98366.70;88481;282;25306;-72
2023/11/26 07:41:46;;;;;;;31.00;20.40;;;;;;;-0.40;100.00;98363.48;88316;282;137216;-72
2023/11/26 07:43:49;;;;;;;27.70;21.20;;;;;;;-0.32;100.00;98358.71;88516;282;22549;-71
2023/11/26 07:45:53;;;;;;;32.40;20.60;;;;;;;-0.26;100.00;98355.95;88458;280;138318;-71
2023/11/26 07:47:56;;;;;;;30.20;20.20;;;;;;;-0.25;100.00;98354.48;88492;279;22545;-70
2023/11/26 07:49:58;;;;;;;24.90;17.50;;;;;;;-0.26;100.00;98348.52;88303;280;135859;-69
2023/11/26 07:52:03;;;;;;;28.20;20.20;;;;;;;-0.31;100.00;98346.54;88368;282;22607;-69
2023/11/26 07:54:05;;;;;;;31.10;20.40;;;;;;;-0.31;100.00;98342.73;88470;282;22537;-71
2023/11/26 07:56:16;;;;;;;28.60;20.50;;;;;;;-0.28;100.00;98337.36;88339;279;138693;-71
2023/11/26 07:58:22;;;;;;;27.20;18.80;;;;;;;-0.24;100.00;98338.70;88387;282;22543;-72
2023/11/26 08:00:24;;;;;;;24.80;16.70;;;;;;;-0.18;100.00;98337.83;88330;284;137138;-72
2023/11/26 08:02:29;;;;;;;28.30;19.90;;;;;;;-0.11;100.00;98342.55;88440;275;22528;-69
2023/11/26 08:04:31;;;;;;;27.70;19.90;;;;;;;-0.14;100.00;98340.38;88292;283;136475;-70
2023/11/26 08:06:33;;;;;;;23.90;18.10;;;;;;;-0.19;100.00;98346.48;88439;283;25140;-70
2023/11/26 08:08:37;;;;;;;26.70;17.30;;;;;;;-0.12;100.00;98347.89;88274;283;137266;-71
2023/11/26 08:10:39;;;;;;;22.90;16.50;;;;;;;-0.05;100.00;98347.41;88451;283;22780;-69
2023/11/26 08:12:42;;;;;;;25.30;17.70;;;;;;;-0.00;100.00;98353.35;88440;282;137193;-71
2023/11/26 08:14:44;;;;;;;28.10;19.10;;;;;;;0.00;100.00;98348.08;88634;275;22554;-67
2023/11/26 08:16:47;;;;;;;27.10;19.10;;;;;;;-0.03;100.00;98343.17;88406;281;136311;-70
2023/11/26 08:18:51;;;;;;;23.50;17.60;;;;;;;-0.07;100.00;98336.27;88438;282;25148;-71
2023/11/26 08:20:53;;;;;;;27.10;19.00;;;;;;;-0.09;100.00;98335.84;88348;283;136354;-68
2023/11/26 08:22:59;;;;;;;23.60;17.50;;;;;;;-0.10;100.00;98334.49;88503;279;22605;-69
2023/11/26 08:25:06;;;;;;;23.10;16.50;;;;;;;-0.05;100.00;98330.16;88353;282;137237;-72
2023/11/26 08:27:13;;;;;;;23.50;16.20;;;;;;;0.00;100.00;98331.31;88443;276;22550;-69
2023/11/26 08:29:19;;;;;;;24.30;16.20;;;;;;;0.05;100.00;98336.38;88373;276;136942;-68
2023/11/26 08:31:23;;;;;;;24.30;17.00;;;;;;;0.04;100.00;98328.75;88639;276;24166;-71
2023/11/26 08:33:30;;;;;;;21.50;15.90;;;;;;;-0.02;100.00;98326.13;88388;282;136280;-72
2023/11/26 08:35:33;;;;;;;23.70;16.10;;;;;;;0.01;100.00;98325.59;88434;282;24017;-71
2023/11/26 08:37:37;;;;;;;19.30;15.20;;;;;;;0.12;100.00;98327.69;88472;282;137016;-72
2023/11/26 08:39:42;;;;;;;20.80;14.90;;;;;;;0.20;100.00;98321.94;88547;282;22742;-68
2023/11/26 08:41:46;;;;;;;23.60;17.00;;;;;;;0.08;100.00;98308.92;88396;276;137295;-69
2023/11/26 08:43:49;;;;;;;22.80;15.30;;;;;;;0.11;100.00;98315.02;88367;284;22543;-70
2023/11/26 08:45:51;;;;;;;21.50;14.40;;;;;;;0.13;100.00;98310.47;91029;282;138428;-71
2023/11/26 08:47:55;;;;;;;23.70;15.40;;;;;;;0.20;100.00;98310.23;89077;282;26190;-71
2023/11/26 08:49:58;;;;;;;21.20;15.30;;;;;;;0.26;100.00;98313.85;88226;282;136851;-72
2023/11/26 08:52:00;;;;;;;20.80;15.30;;;;;;;0.27;100.00;98315.29;88347;274;22544;-71
2023/11/26 08:54:03;;;;;;;23.00;16.00;;;;;;;0.24;100.00;98312.98;88344;276;136144;-73
2023/11/26 08:56:06;;;;;;;23.60;13.80;;;;;;;0.22;100.00;98311.45;88503;276;136011;-68
2023/11/26 08:58:08;;;;;;;20.30;13.20;;;;;;;0.22;100.00;98306.86;88519;278;26142;-71
2023/11/26 09:00:10;;;;;;;23.10;15.00;;;;;;;0.29;100.00;98305.96;88392;278;138218;-70
2023/11/26 09:02:12;;;;;;;19.30;13.30;;;;;;;0.36;100.00;98296.27;88463;284;22570;-72
2023/11/26 09:04:14;;;;;;;20.40;14.00;;;;;;;0.43;100.00;98291.08;88854;282;136586;-72
2023/11/26 09:06:18;;;;;;;20.60;12.80;;;;;;;0.41;100.00;98286.01;88515;282;25252;-72
2023/11/26 09:08:20;;;;;;;17.50;12.50;;;;;;;0.36;100.00;98280.27;88350;282;136537;-71
2023/11/26 09:10:23;;;;;;;17.70;10.90;;;;;;;0.35;100.00;98281.16;88372;282;22539;-70
2023/11/26 09:12:27;;;;;;;22.70;14.00;;;;;;;0.31;100.00;98272.98;88571;282;136857;-71
2023/11/26 09:14:34;;;;;;;21.50;13.50;;;;;;;0.33;100.00;98261.02;88617;275;22537;-72
2023/11/26 09:16:36;;;;;;;15.70;11.50;;;;;;;0.39;100.00;98253.63;88352;282;137136;-72
2023/11/26 09:18:38;;;;;;;16.90;10.90;;;;;;;0.44;100.00;98247.98;88274;280;24108;-70
2023/11/26 09:20:41;;;;;;;17.60;12.50;;;;;;;0.44;100.00;98247.81;88259;276;137121;-73
2023/11/26 09:22:43;;;;;;;17.30;12.30;;;;;;;0.40;100.00;98242.84;88335;282;22527;-70
2023/11/26 09:24:45;;;;;;;17.60;14.00;;;;;;;0.36;100.00;98235.52;88209;278;136630;-69